Time;durP1;ratioP1;P1;durP2;ratioP2;P2;SDS_P1;SDS_P2;PMS_P1;PMS_P2;Temp;Humidity;BMP_temperature;BMP_pressure;BME280_temperature;BME280_humidity;BME280_pressure;Samples;Min_cycle;Max_cycle;Signal;HPM_P1;HPM_P2
2020/12/16 00:00:24;;;;;;;7.40;4.45;;;17.70;56.20;;;;;;5080728;28;20154;-80
2020/12/16 00:02:50;;;;;;;11.25;5.25;;;17.70;56.50;;;;;;5079970;28;20160;-80
2020/12/16 00:05:17;;;;;;;9.18;5.53;;;17.70;56.40;;;;;;5081146;28;20209;-79
2020/12/16 00:07:44;;;;;;;6.57;4.32;;;17.70;56.30;;;;;;5081089;28;20154;-79
2020/12/16 00:10:11;;;;;;;7.88;4.90;;;17.70;56.30;;;;;;5081097;28;20490;-80
2020/12/16 00:12:38;;;;;;;9.13;4.63;;;17.70;56.50;;;;;;5062784;28;20153;-80
2020/12/16 00:15:06;;;;;;;10.80;4.93;;;17.70;56.50;;;;;;5080561;28;20232;-80
2020/12/16 00:17:33;;;;;;;8.50;5.50;;;17.70;56.30;;;;;;5062232;28;20158;-80
2020/12/16 00:20:00;;;;;;;8.00;4.53;;;17.70;56.40;;;;;;5080378;28;20624;-79
2020/12/16 00:22:38;;;;;;;7.93;4.72;;;17.70;56.30;;;;;;5080391;28;20158;-80
2020/12/16 00:25:05;;;;;;;11.10;5.40;;;17.70;56.50;;;;;;5062178;28;20185;-80
2020/12/16 00:27:31;;;;;;;7.60;4.88;;;17.70;56.50;;;;;;5080278;28;20158;-79
2020/12/16 00:29:58;;;;;;;9.55;5.10;;;17.70;56.50;;;;;;5080234;28;20193;-80
2020/12/16 00:32:24;;;;;;;8.95;4.63;;;17.70;56.50;;;;;;5079896;28;20157;-80
2020/12/16 00:34:50;;;;;;;7.40;4.70;;;17.60;56.50;;;;;;5080061;28;20172;-80
2020/12/16 00:37:16;;;;;;;10.55;5.03;;;17.60;56.60;;;;;;5080709;28;20258;-79
2020/12/16 00:39:43;;;;;;;8.27;4.68;;;17.60;56.60;;;;;;5080579;28;20252;-80
2020/12/16 00:42:09;;;;;;;9.95;4.70;;;17.60;56.50;;;;;;5079344;28;20223;-80
2020/12/16 00:44:38;;;;;;;8.32;4.63;;;17.60;56.60;;;;;;5079636;28;20166;-79
2020/12/16 00:47:05;;;;;;;7.45;5.00;;;17.60;56.60;;;;;;5079265;28;20248;-81
2020/12/16 00:49:32;;;;;;;7.38;4.85;;;17.60;56.60;;;;;;5080013;28;20156;-80
2020/12/16 00:51:58;;;;;;;7.85;4.88;;;17.60;56.50;;;;;;5079313;28;20605;-79
2020/12/16 00:54:24;;;;;;;6.70;4.45;;;17.60;56.50;;;;;;5079709;28;20154;-80
2020/12/16 00:56:50;;;;;;;7.15;4.80;;;17.60;56.60;;;;;;5061083;28;20192;-79
2020/12/16 00:59:17;;;;;;;7.50;4.60;;;17.60;56.70;;;;;;5079002;28;20156;-80
2020/12/16 01:01:44;;;;;;;6.97;4.70;;;17.60;56.70;;;;;;5079533;28;20161;-80
2020/12/16 01:04:11;;;;;;;8.48;4.78;;;17.60;56.50;;;;;;5079228;28;20211;-80
2020/12/16 01:06:38;;;;;;;7.20;4.38;;;17.60;56.60;;;;;;5078709;28;20616;-80
2020/12/16 01:09:06;;;;;;;7.85;4.70;;;17.60;56.50;;;;;;5078907;28;20153;-79
2020/12/16 01:11:37;;;;;;;6.40;4.90;;;17.60;56.60;;;;;;5078871;28;20158;-80
2020/12/16 01:14:05;;;;;;;7.70;4.70;;;17.60;56.60;;;;;;5078911;28;20199;-79
2020/12/16 01:16:38;;;;;;;6.32;4.93;;;17.60;56.60;;;;;;5060299;28;20217;-80
2020/12/16 01:19:09;;;;;;;7.38;4.90;;;17.60;56.60;;;;;;5060301;28;20513;-79
2020/12/16 01:21:45;;;;;;;6.38;4.60;;;17.60;56.70;;;;;;5061205;28;20733;-80
2020/12/16 01:24:12;;;;;;;7.25;5.13;;;17.60;56.60;;;;;;5060636;28;20157;-79
2020/12/16 01:27:00;;;;;;;8.95;4.72;;;17.60;56.70;;;;;;5078134;28;20168;-80
2020/12/16 01:29:27;;;;;;;6.80;4.60;;;17.60;56.70;;;;;;5077095;28;20161;-79
2020/12/16 01:31:53;;;;;;;7.72;4.85;;;17.60;56.80;;;;;;5078284;28;20154;-79
2020/12/16 01:34:20;;;;;;;8.20;5.30;;;17.50;56.60;;;;;;5059866;28;20153;-79
2020/12/16 01:36:47;;;;;;;9.00;4.45;;;17.50;56.80;;;;;;5077231;28;20579;-80
2020/12/16 01:39:14;;;;;;;8.90;5.35;;;17.50;56.80;;;;;;5077429;28;20181;-80
2020/12/16 01:41:41;;;;;;;7.22;4.70;;;17.60;56.60;;;;;;5076406;28;20691;-80
2020/12/16 01:44:23;;;;;;;9.13;4.50;;;17.60;56.60;;;;;;5057725;28;20627;-80
2020/12/16 01:47:07;;;;;;;9.13;5.55;;;17.60;56.70;;;;;;5058195;28;20169;-80
2020/12/16 01:49:33;;;;;;;7.18;4.28;;;17.50;56.80;;;;;;5057526;28;20506;-79
2020/12/16 01:52:02;;;;;;;8.43;4.60;;;17.50;56.80;;;;;;5075665;28;20152;-80
2020/12/16 01:54:29;;;;;;;8.77;5.03;;;17.60;56.80;;;;;;5075693;28;20154;-80
2020/12/16 01:56:57;;;;;;;8.98;5.15;;;17.50;56.80;;;;;;5075617;28;20193;-80
2020/12/16 01:59:23;;;;;;;7.53;4.78;;;17.50;56.70;;;;;;5075317;28;20643;-80
2020/12/16 02:01:54;;;;;;;7.07;4.97;;;17.50;56.70;;;;;;5058318;28;20161;-80
2020/12/16 02:04:24;;;;;;;7.75;4.57;;;17.50;56.90;;;;;;5058120;28;20206;-80
2020/12/16 02:06:55;;;;;;;8.63;4.75;;;17.50;56.90;;;;;;5075908;28;20278;-80
2020/12/16 02:09:22;;;;;;;7.10;4.50;;;17.50;56.90;;;;;;5058389;28;20173;-80
2020/12/16 02:11:49;;;;;;;8.15;4.97;;;17.50;56.90;;;;;;5075492;28;20165;-80
2020/12/16 02:14:15;;;;;;;7.10;4.82;;;17.50;56.90;;;;;;5075535;28;20545;-80
2020/12/16 02:16:42;;;;;;;7.18;4.72;;;17.50;56.80;;;;;;5075756;28;20258;-80
2020/12/16 02:19:10;;;;;;;6.70;4.53;;;17.50;56.70;;;;;;5075476;28;20162;-79
2020/12/16 02:21:37;;;;;;;7.18;4.93;;;17.50;56.80;;;;;;5075832;28;20212;-80
2020/12/16 02:24:05;;;;;;;7.40;5.10;;;17.50;56.90;;;;;;5058435;28;20237;-80
2020/12/16 02:26:33;;;;;;;8.35;5.07;;;17.50;56.90;;;;;;5075852;28;20156;-80
2020/12/16 02:29:00;;;;;;;5.95;4.20;;;17.50;56.90;;;;;;5076497;28;20153;-79
2020/12/16 02:31:37;;;;;;;6.03;4.38;;;17.50;56.90;;;;;;5076048;28;20168;-80
2020/12/16 02:34:04;;;;;;;6.97;4.82;;;17.50;56.80;;;;;;5076603;28;20160;-80
2020/12/16 02:36:30;;;;;;;6.88;4.80;;;17.50;56.90;;;;;;5076410;28;20636;-80
2020/12/16 02:38:56;;;;;;;7.05;4.40;;;17.50;56.90;;;;;;5058792;28;20183;-79
2020/12/16 02:41:23;;;;;;;8.73;5.15;;;17.50;56.90;;;;;;5058657;28;20245;-80
2020/12/16 02:43:51;;;;;;;7.70;4.78;;;17.50;56.90;;;;;;5076460;28;20150;-80
2020/12/16 02:46:25;;;;;;;6.78;4.50;;;17.50;56.80;;;;;;5058623;28;20228;-80
2020/12/16 02:48:52;;;;;;;7.13;4.78;;;17.50;56.90;;;;;;5076313;28;20204;-80
2020/12/16 02:51:18;;;;;;;7.78;4.93;;;17.50;56.90;;;;;;5076281;28;20154;-80
2020/12/16 02:53:44;;;;;;;6.82;4.60;;;17.50;56.90;;;;;;5076072;28;20165;-80
2020/12/16 02:56:10;;;;;;;7.65;4.45;;;17.50;56.90;;;;;;5058468;28;20191;-80
2020/12/16 02:58:44;;;;;;;8.07;4.70;;;17.50;57.50;;;;;;5078507;28;20153;-80
2020/12/16 03:01:11;;;;;;;8.07;4.70;;;17.50;56.90;;;;;;5046371;28;20540;-80
2020/12/16 03:03:37;;;;;;;7.13;4.63;;;17.50;56.90;;;;;;5062698;28;20197;-80
2020/12/16 03:06:04;;;;;;;7.25;4.70;;;17.50;56.90;;;;;;5080959;28;20162;-79
2020/12/16 03:08:31;;;;;;;7.35;4.90;;;17.50;57.00;;;;;;5080225;28;20165;-80
2020/12/16 03:10:58;;;;;;;6.18;4.40;;;17.50;57.00;;;;;;5063084;28;20149;-80
2020/12/16 03:13:24;;;;;;;7.28;4.22;;;17.50;57.00;;;;;;5079615;28;20156;-80
2020/12/16 03:15:50;;;;;;;6.90;4.55;;;17.40;57.00;;;;;;5080527;28;20257;-79
2020/12/16 03:18:16;;;;;;;6.60;4.30;;;17.50;57.00;;;;;;5080311;28;20199;-80
2020/12/16 03:20:43;;;;;;;6.85;4.63;;;17.40;57.00;;;;;;5080266;28;20158;-80
2020/12/16 03:23:10;;;;;;;6.55;4.38;;;17.50;57.00;;;;;;5079905;28;20157;-80
2020/12/16 03:25:36;;;;;;;6.80;4.78;;;17.50;57.00;;;;;;5080090;28;20165;-79
2020/12/16 03:28:02;;;;;;;5.75;4.35;;;17.40;57.00;;;;;;5080461;28;20181;-80
2020/12/16 03:30:28;;;;;;;7.00;4.68;;;17.40;57.10;;;;;;5080399;28;20181;-80
2020/12/16 03:32:56;;;;;;;6.80;4.40;;;17.50;57.30;;;;;;5080075;28;20255;-80
2020/12/16 03:35:23;;;;;;;6.38;4.53;;;17.50;57.00;;;;;;5080662;28;20150;-80
2020/12/16 03:37:49;;;;;;;7.22;4.60;;;17.50;57.00;;;;;;5079966;28;20321;-80
2020/12/16 03:40:17;;;;;;;6.30;4.18;;;17.50;57.00;;;;;;5080152;28;20195;-80
2020/12/16 03:42:44;;;;;;;7.07;4.47;;;17.50;57.00;;;;;;5080151;28;20170;-80
2020/12/16 03:45:10;;;;;;;6.78;4.68;;;17.50;57.00;;;;;;5080133;28;20157;-79
2020/12/16 03:47:37;;;;;;;10.15;5.00;;;17.40;57.00;;;;;;5079791;28;20146;-80
2020/12/16 03:50:03;;;;;;;5.78;4.38;;;17.40;57.10;;;;;;5080346;28;20550;-79
2020/12/16 03:52:30;;;;;;;6.93;4.60;;;17.40;57.10;;;;;;5080611;28;20149;-79
2020/12/16 03:54:56;;;;;;;7.13;4.25;;;17.40;57.10;;;;;;5080114;28;20172;-79
2020/12/16 03:57:23;;;;;;;6.30;4.32;;;17.40;57.10;;;;;;5080256;28;20193;-80
2020/12/16 03:59:49;;;;;;;7.13;4.70;;;17.40;57.20;;;;;;5061754;28;20181;-80
2020/12/16 04:02:16;;;;;;;8.13;4.53;;;17.40;57.10;;;;;;5080165;28;20211;-80
2020/12/16 04:04:43;;;;;;;7.05;4.38;;;17.40;57.10;;;;;;5061365;28;20169;-79
2020/12/16 04:07:09;;;;;;;7.10;4.40;;;17.40;57.10;;;;;;5079039;28;20161;-80
2020/12/16 04:09:36;;;;;;;6.95;4.47;;;17.40;57.10;;;;;;5078916;28;20204;-81
2020/12/16 04:12:03;;;;;;;6.75;4.40;;;17.40;57.00;;;;;;5061876;28;20150;-79
2020/12/16 04:14:29;;;;;;;6.53;4.40;;;17.40;57.10;;;;;;5079229;28;20620;-79
2020/12/16 04:16:56;;;;;;;7.97;4.53;;;17.40;57.10;;;;;;5079591;28;20208;-80
2020/12/16 04:19:23;;;;;;;5.95;4.47;;;17.40;57.10;;;;;;5060714;28;20568;-80
2020/12/16 04:21:53;;;;;;;6.53;4.18;;;17.40;57.10;;;;;;5079118;28;20232;-80
2020/12/16 04:24:20;;;;;;;6.88;4.47;;;17.40;56.90;;;;;;5060458;28;20153;-79
2020/12/16 04:26:46;;;;;;;6.15;4.38;;;17.40;57.00;;;;;;5079085;28;20170;-80
2020/12/16 04:29:12;;;;;;;6.85;4.05;;;17.40;57.00;;;;;;5078663;28;20164;-80
2020/12/16 04:31:39;;;;;;;7.07;4.72;;;17.40;57.00;;;;;;5078994;28;20620;-79
2020/12/16 04:34:06;;;;;;;6.68;4.55;;;17.50;57.10;;;;;;5078974;28;20338;-80
2020/12/16 04:36:32;;;;;;;6.53;4.70;;;17.40;57.10;;;;;;5079169;28;20189;-80
2020/12/16 04:38:58;;;;;;;6.43;4.70;;;17.50;57.20;;;;;;5060579;28;20532;-79
2020/12/16 04:41:32;;;;;;;6.68;4.20;;;17.50;57.10;;;;;;5078729;28;20150;-80
2020/12/16 04:44:09;;;;;;;6.10;4.38;;;17.40;57.20;;;;;;5078978;28;20157;-79
2020/12/16 04:46:37;;;;;;;6.88;4.03;;;17.40;57.10;;;;;;5078499;28;20163;-80
2020/12/16 04:49:04;;;;;;;6.53;4.30;;;17.40;57.00;;;;;;5061355;28;20150;-79
2020/12/16 04:51:30;;;;;;;6.53;4.60;;;17.50;57.00;;;;;;5060806;28;20248;-80
2020/12/16 04:53:57;;;;;;;7.15;4.82;;;17.50;57.00;;;;;;5043528;28;20256;-80
2020/12/16 04:56:23;;;;;;;6.95;4.05;;;17.50;56.60;;;;;;5079047;28;20189;-80
2020/12/16 04:58:49;;;;;;;5.95;4.10;;;17.60;56.40;;;;;;5060606;28;20154;-80
2020/12/16 05:01:16;;;;;;;6.95;4.43;;;17.60;56.20;;;;;;5079249;28;20150;-80
2020/12/16 05:03:42;;;;;;;6.07;4.22;;;17.70;56.10;;;;;;5078570;28;20212;-80
2020/12/16 05:06:09;;;;;;;6.03;4.03;;;17.70;56.00;;;;;;5079180;28;20314;-80
2020/12/16 05:08:35;;;;;;;6.10;3.90;;;17.70;56.10;;;;;;5060549;28;20158;-79
2020/12/16 05:11:02;;;;;;;6.55;4.00;;;17.70;56.10;;;;;;5060762;28;20187;-80
2020/12/16 05:13:29;;;;;;;5.22;3.83;;;17.70;56.10;;;;;;5078913;28;20219;-80
2020/12/16 05:15:59;;;;;;;4.78;3.72;;;17.70;56.30;;;;;;5078623;28;20674;-79
2020/12/16 05:18:26;;;;;;;7.15;4.43;;;17.70;56.00;;;;;;5060689;28;20165;-80
2020/12/16 05:20:53;;;;;;;5.60;3.85;;;17.70;55.90;;;;;;5059969;28;20255;-79
2020/12/16 05:23:32;;;;;;;5.80;4.20;;;17.80;55.90;;;;;;5060420;28;20245;-79
2020/12/16 05:26:10;;;;;;;5.88;4.15;;;17.70;56.00;;;;;;5078293;28;20188;-80
2020/12/16 05:28:41;;;;;;;5.13;3.92;;;17.70;56.20;;;;;;5078699;28;20164;-80
2020/12/16 05:31:13;;;;;;;3.85;3.17;;;17.70;56.10;;;;;;5059920;28;20583;-80
2020/12/16 05:33:50;;;;;;;6.28;3.80;;;17.60;56.10;;;;;;5078491;28;20157;-80
2020/12/16 05:36:28;;;;;;;4.55;3.60;;;17.70;56.10;;;;;;5060050;28;20197;-79
2020/12/16 05:38:55;;;;;;;4.93;3.78;;;17.70;55.90;;;;;;5059715;28;20166;-80
2020/12/16 05:41:41;;;;;;;6.55;3.97;;;17.70;56.10;;;;;;5077851;28;20150;-80
2020/12/16 05:44:21;;;;;;;5.80;3.67;;;17.70;56.00;;;;;;5059272;28;20157;-80
2020/12/16 05:46:51;;;;;;;5.05;3.60;;;17.80;55.70;;;;;;5078148;28;20157;-80
2020/12/16 05:49:30;;;;;;;5.30;3.78;;;17.70;55.90;;;;;;5078449;28;20149;-80
2020/12/16 05:52:00;;;;;;;5.35;4.10;;;17.70;56.20;;;;;;5060272;28;20182;-80
2020/12/16 05:54:27;;;;;;;5.20;3.60;;;17.70;56.10;;;;;;5078406;28;20158;-80
2020/12/16 05:57:18;;;;;;;4.97;3.35;;;17.60;56.00;;;;;;5078182;28;20184;-80
2020/12/16 06:00:10;;;;;;;5.22;3.65;;;17.70;56.10;;;;;;5059929;28;20161;-79
2020/12/16 06:02:40;;;;;;;5.65;3.85;;;17.60;56.30;;;;;;5068978;28;20220;-80
2020/12/16 06:05:10;;;;;;;4.72;3.50;;;17.70;55.90;;;;;;5059255;28;20169;-79
2020/12/16 06:07:46;;;;;;;5.28;3.85;;;17.70;55.80;;;;;;5077904;28;20168;-80
2020/12/16 06:10:13;;;;;;;4.90;3.45;;;17.70;55.70;;;;;;5060207;28;20153;-80
2020/12/16 06:12:59;;;;;;;5.25;3.70;;;17.80;55.10;;;;;;5078520;28;20165;-81
2020/12/16 06:15:25;;;;;;;5.13;3.50;;;17.80;55.70;;;;;;5042012;28;20635;-80
2020/12/16 06:17:52;;;;;;;4.60;3.40;;;17.80;55.60;;;;;;5059033;28;20165;-80
2020/12/16 06:20:18;;;;;;;5.15;3.42;;;17.80;55.30;;;;;;5078316;28;20180;-80
2020/12/16 06:22:46;;;;;;;4.80;3.70;;;17.80;55.40;;;;;;5077443;28;20157;-79
2020/12/16 06:25:14;;;;;;;4.55;3.65;;;17.80;55.20;;;;;;5078095;28;20149;-80
2020/12/16 06:28:06;;;;;;;5.05;3.50;;;17.80;55.40;;;;;;5059612;28;20189;-80
2020/12/16 06:30:35;;;;;;;4.88;3.78;;;17.70;55.80;;;;;;5054209;28;20162;-79
2020/12/16 06:33:12;;;;;;;3.80;3.13;;;17.80;55.60;;;;;;5062370;28;20164;-80
2020/12/16 06:35:47;;;;;;;4.22;3.33;;;17.80;55.50;;;;;;5076891;28;20232;-80
2020/12/16 06:38:38;;;;;;;4.70;3.15;;;17.80;55.40;;;;;;5057031;28;20224;-80
2020/12/16 06:41:09;;;;;;;4.93;3.47;;;17.80;55.40;;;;;;5056910;28;20158;-79
2020/12/16 06:43:35;;;;;;;4.47;3.45;;;17.80;55.30;;;;;;5057419;28;20608;-79
2020/12/16 06:46:04;;;;;;;5.10;3.40;;;17.80;55.70;;;;;;5055865;28;20154;-79
2020/12/16 06:48:39;;;;;;;5.15;3.50;;;17.80;55.40;;;;;;5057169;28;20165;-79
2020/12/16 06:51:15;;;;;;;4.97;3.10;;;17.70;55.80;;;;;;5056918;28;20173;-80
2020/12/16 06:53:43;;;;;;;4.32;3.40;;;17.70;55.50;;;;;;5057152;28;20284;-80
2020/12/16 06:56:11;;;;;;;4.05;3.22;;;17.70;55.80;;;;;;5056478;28;20692;-80
2020/12/16 06:58:41;;;;;;;5.05;3.55;;;17.60;56.00;;;;;;5057091;28;20158;-79
2020/12/16 07:01:13;;;;;;;4.18;3.20;;;17.60;55.60;;;;;;5055972;28;20150;-79
2020/12/16 07:03:39;;;;;;;4.53;3.10;;;17.70;55.60;;;;;;5055634;28;20184;-79
2020/12/16 07:06:09;;;;;;;4.18;3.35;;;17.70;55.50;;;;;;5056985;28;20162;-79
2020/12/16 07:08:35;;;;;;;4.97;3.60;;;17.80;55.20;;;;;;5054553;28;20158;-79
2020/12/16 07:11:02;;;;;;;4.82;3.20;;;17.80;55.40;;;;;;5048953;28;20258;-79
2020/12/16 07:13:30;;;;;;;4.32;3.40;;;17.70;55.50;;;;;;5036274;28;20170;-80
2020/12/16 07:16:13;;;;;;;3.75;3.10;;;17.70;55.70;;;;;;5035250;28;20194;-79
2020/12/16 07:18:39;;;;;;;4.13;3.08;;;17.80;55.20;;;;;;5035637;28;20190;-79
2020/12/16 07:21:08;;;;;;;3.78;2.83;;;17.80;55.10;;;;;;5054888;28;20500;-80
2020/12/16 07:24:12;;;;;;;4.38;3.22;;;17.80;55.10;;;;;;5058121;28;20150;-81
2020/12/16 07:26:58;;;;;;;4.15;2.97;;;17.80;55.80;;;;;;5054806;28;20185;-80
2020/12/16 07:29:28;;;;;;;4.90;3.33;;;17.90;55.10;;;;;;5055859;28;20201;-80
2020/12/16 07:32:02;;;;;;;3.80;3.08;;;17.90;55.10;;;;;;5058103;28;20150;-79
2020/12/16 07:34:31;;;;;;;4.40;3.30;;;17.90;54.80;;;;;;5057952;28;20296;-80
2020/12/16 07:37:01;;;;;;;4.15;3.13;;;17.90;54.60;;;;;;5041604;28;20230;-80
2020/12/16 07:39:34;;;;;;;4.43;3.30;;;17.80;54.90;;;;;;5063901;28;20197;-79
2020/12/16 07:42:00;;;;;;;5.13;3.40;;;17.90;54.70;;;;;;5065753;28;20150;-79
2020/12/16 07:44:27;;;;;;;3.65;3.25;;;17.80;54.90;;;;;;5064889;28;20628;-79
2020/12/16 07:47:01;;;;;;;4.68;3.17;;;17.80;54.70;;;;;;5068092;28;20200;-79
2020/12/16 07:49:29;;;;;;;5.43;3.60;;;17.80;54.30;;;;;;5066060;28;20621;-80
2020/12/16 07:52:01;;;;;;;4.10;3.38;;;17.70;54.70;;;;;;5067007;28;20169;-80
2020/12/16 07:54:27;;;;;;;4.72;3.50;;;17.70;54.40;;;;;;5066831;28;20203;-80
2020/12/16 07:56:54;;;;;;;6.07;3.35;;;17.70;54.50;;;;;;5068376;28;20194;-79
2020/12/16 07:59:20;;;;;;;4.43;3.33;;;17.80;54.60;;;;;;5050029;28;20155;-80
2020/12/16 08:01:48;;;;;;;4.03;3.30;;;17.80;54.30;;;;;;5066440;28;20158;-80
2020/12/16 08:04:17;;;;;;;4.13;3.35;;;17.90;54.50;;;;;;5065903;28;20162;-79
2020/12/16 08:06:44;;;;;;;4.20;3.15;;;17.80;54.60;;;;;;5065766;28;20169;-80
2020/12/16 08:09:11;;;;;;;4.90;3.53;;;17.80;54.70;;;;;;5066435;28;20250;-80
2020/12/16 08:11:38;;;;;;;3.70;2.95;;;17.80;54.80;;;;;;5065391;28;20237;-79
2020/12/16 08:14:09;;;;;;;3.38;3.08;;;17.80;54.60;;;;;;5048644;28;20184;-80
2020/12/16 08:16:36;;;;;;;4.93;3.33;;;17.80;54.60;;;;;;5066661;28;20190;-80
2020/12/16 08:19:03;;;;;;;3.60;3.03;;;17.80;54.70;;;;;;5065088;28;20181;-80
2020/12/16 08:21:29;;;;;;;3.92;3.00;;;17.80;54.80;;;;;;5067385;28;20154;-79
2020/12/16 08:23:56;;;;;;;4.25;3.30;;;17.80;54.70;;;;;;5065435;28;20166;-79
2020/12/16 08:26:25;;;;;;;5.93;3.30;;;17.80;54.80;;;;;;5066987;28;20162;-79
2020/12/16 08:28:52;;;;;;;4.53;3.40;;;17.80;54.50;;;;;;5064919;28;20158;-80
2020/12/16 08:31:20;;;;;;;4.78;3.22;;;17.90;54.40;;;;;;5064929;28;20163;-80
2020/12/16 08:33:48;;;;;;;4.80;3.10;;;17.90;54.40;;;;;;5065517;28;20154;-80
2020/12/16 08:36:37;;;;;;;4.82;3.60;;;17.80;54.30;;;;;;5065930;28;20198;-80
2020/12/16 08:39:06;;;;;;;3.72;3.13;;;17.80;54.30;;;;;;5045168;28;20182;-79
2020/12/16 08:41:35;;;;;;;4.20;3.03;;;17.80;54.40;;;;;;5063857;28;20158;-80
2020/12/16 08:44:02;;;;;;;4.28;3.10;;;17.80;54.10;;;;;;5048206;28;20675;-80
2020/12/16 08:46:29;;;;;;;3.88;2.97;;;17.90;54.10;;;;;;5067539;28;20181;-79
2020/12/16 08:48:55;;;;;;;4.20;3.22;;;17.80;54.40;;;;;;5068529;28;20181;-79
2020/12/16 08:51:31;;;;;;;3.75;3.05;;;17.90;54.20;;;;;;5068414;28;20162;-79
2020/12/16 08:54:00;;;;;;;3.88;3.00;;;17.90;54.00;;;;;;5065914;28;20153;-79
2020/12/16 08:56:29;;;;;;;5.20;3.10;;;17.90;53.80;;;;;;5066289;28;20208;-79
2020/12/16 08:59:04;;;;;;;3.83;3.08;;;18.00;53.80;;;;;;5049807;28;20200;-79
2020/12/16 09:01:31;;;;;;;3.85;2.90;;;18.00;53.80;;;;;;5050024;28;20169;-78
2020/12/16 09:03:58;;;;;;;3.80;3.00;;;18.00;53.70;;;;;;5066522;28;20738;-79
2020/12/16 09:06:29;;;;;;;4.25;3.13;;;18.00;53.90;;;;;;5048573;28;20200;-79
2020/12/16 09:09:13;;;;;;;5.85;3.00;;;18.00;53.90;;;;;;5032811;28;20548;-79
2020/12/16 09:11:49;;;;;;;3.78;2.88;;;18.00;53.80;;;;;;5033654;28;20679;-80
2020/12/16 09:14:27;;;;;;;3.97;3.03;;;18.00;53.90;;;;;;5047062;28;20174;-80
2020/12/16 09:16:53;;;;;;;5.15;3.10;;;17.90;53.90;;;;;;5048785;28;20645;-80
2020/12/16 09:19:34;;;;;;;3.05;2.60;;;17.90;54.10;;;;;;5066563;28;20162;-80
2020/12/16 09:22:02;;;;;;;3.78;2.80;;;18.00;53.50;;;;;;5049472;28;20182;-80
2020/12/16 09:24:35;;;;;;;4.00;3.10;;;18.00;53.40;;;;;;5050303;28;20181;-80
2020/12/16 09:27:11;;;;;;;4.30;3.28;;;18.10;53.50;;;;;;5048975;28;20197;-80
2020/12/16 09:29:48;;;;;;;3.70;2.90;;;18.00;53.70;;;;;;5049143;28;20181;-80
2020/12/16 09:32:25;;;;;;;3.40;2.60;;;18.10;53.50;;;;;;5049132;28;20170;-80
2020/12/16 09:34:54;;;;;;;3.30;2.70;;;18.10;53.20;;;;;;5048800;28;20194;-81
2020/12/16 09:40:53;;;;;;;3.47;2.85;;;18.10;53.00;;;;;;5065681;28;20223;-80
2020/12/16 09:43:54;;;;;;;3.25;2.90;;;18.10;53.30;;;;;;5048917;28;20178;-80
2020/12/16 09:46:34;;;;;;;3.47;2.60;;;18.00;53.10;;;;;;5064127;28;20188;-79
2020/12/16 09:49:35;;;;;;;4.07;3.00;;;18.10;53.30;;;;;;5048315;28;20220;-80
2020/12/16 09:52:29;;;;;;;3.42;2.60;;;18.10;53.00;;;;;;5064739;28;20185;-80
2020/12/16 09:55:49;;;;;;;2.75;2.47;;;18.10;53.10;;;;;;5066387;28;20178;-80
2020/12/16 09:58:16;;;;;;;4.07;2.45;;;18.10;53.20;;;;;;5062229;28;20182;-80
2020/12/16 10:00:45;;;;;;;4.35;2.95;;;18.10;53.40;;;;;;5067311;28;20162;-81
2020/12/16 10:03:13;;;;;;;3.20;2.70;;;18.10;53.00;;;;;;5064811;28;20155;-81
2020/12/16 10:05:41;;;;;;;3.88;2.72;;;18.10;52.70;;;;;;5059324;28;20182;-79
2020/12/16 10:08:11;;;;;;;3.08;2.58;;;18.10;52.80;;;;;;5061867;28;20200;-80
2020/12/16 10:10:47;;;;;;;4.05;2.67;;;18.20;52.60;;;;;;5047231;28;20170;-80
2020/12/16 10:13:14;;;;;;;3.28;2.30;;;18.20;52.70;;;;;;5062167;28;20161;-79
2020/12/16 10:15:41;;;;;;;3.15;2.53;;;18.20;52.50;;;;;;5061740;28;20216;-79
2020/12/16 10:18:08;;;;;;;2.30;2.10;;;18.20;52.60;;;;;;5061216;28;20161;-79
2020/12/16 10:20:34;;;;;;;4.93;2.50;;;18.20;52.50;;;;;;5061284;28;20173;-79
2020/12/16 10:23:03;;;;;;;3.33;2.63;;;18.20;52.60;;;;;;5061619;28;20212;-78
2020/12/16 10:25:30;;;;;;;2.70;2.17;;;18.20;52.30;;;;;;5062025;28;20616;-79
2020/12/16 10:28:09;;;;;;;4.53;2.30;;;18.20;52.30;;;;;;5062132;28;20156;-79
2020/12/16 10:30:37;;;;;;;7.10;2.85;;;18.20;52.20;;;;;;5061846;28;20196;-78
2020/12/16 10:33:05;;;;;;;3.35;2.63;;;18.30;52.20;;;;;;5062225;28;20226;-78
2020/12/16 10:35:39;;;;;;;4.20;2.55;;;18.20;52.50;;;;;;5061971;28;20146;-78
2020/12/16 10:38:06;;;;;;;8.32;2.38;;;18.20;52.70;;;;;;5075029;28;20211;-78
2020/12/16 10:40:33;;;;;;;3.85;2.17;;;18.20;52.10;;;;;;5083753;28;20240;-79
2020/12/16 10:43:00;;;;;;;3.00;2.28;;;18.10;52.70;;;;;;5078822;28;20199;-77
2020/12/16 10:45:27;;;;;;;5.93;2.30;;;18.10;52.70;;;;;;5060823;28;20260;-77
2020/12/16 10:47:57;;;;;;;3.13;2.38;;;18.20;52.60;;;;;;5078755;28;20160;-77
2020/12/16 10:50:45;;;;;;;2.55;2.22;;;18.20;52.30;;;;;;5076891;28;20516;-77
2020/12/16 10:53:12;;;;;;;3.88;2.33;;;18.20;52.30;;;;;;5074664;28;20682;-77
2020/12/16 10:55:38;;;;;;;3.60;2.25;;;18.20;52.40;;;;;;5073045;28;20649;-77
2020/12/16 10:58:04;;;;;;;3.78;2.40;;;18.20;52.50;;;;;;5072911;28;20637;-77
2020/12/16 11:00:31;;;;;;;2.28;2.08;;;18.20;52.60;;;;;;5055231;28;20635;-77
2020/12/16 11:02:57;;;;;;;5.40;2.45;;;18.10;52.10;;;;;;5054752;28;20157;-77
2020/12/16 11:05:24;;;;;;;3.08;2.30;;;18.10;52.20;;;;;;5072713;28;20154;-78
2020/12/16 11:07:51;;;;;;;3.40;2.47;;;18.20;52.10;;;;;;5073028;28;20157;-77
2020/12/16 11:10:17;;;;;;;4.00;2.40;;;18.10;52.30;;;;;;5072543;28;20169;-77
2020/12/16 11:12:43;;;;;;;2.85;2.28;;;18.10;52.10;;;;;;5072840;28;20238;-78
2020/12/16 11:15:10;;;;;;;3.70;2.25;;;18.10;52.10;;;;;;5072755;28;20157;-78
2020/12/16 11:17:37;;;;;;;2.72;2.20;;;18.10;51.90;;;;;;5073222;28;20272;-77
2020/12/16 11:20:04;;;;;;;2.65;1.85;;;18.10;51.50;;;;;;5076293;28;20236;-77
2020/12/16 11:22:30;;;;;;;4.80;2.08;;;18.10;51.90;;;;;;5061085;28;20228;-78
2020/12/16 11:24:57;;;;;;;3.28;2.33;;;18.20;51.70;;;;;;5082271;28;20192;-77
2020/12/16 11:27:24;;;;;;;2.83;2.00;;;18.10;51.80;;;;;;5079790;28;20162;-78
2020/12/16 11:29:51;;;;;;;4.65;2.25;;;18.20;51.50;;;;;;5078963;28;20153;-79
2020/12/16 11:32:17;;;;;;;2.70;2.45;;;18.20;51.60;;;;;;5078923;28;20257;-79
2020/12/16 11:34:43;;;;;;;3.72;2.13;;;18.30;51.30;;;;;;5060765;28;20572;-79
2020/12/16 11:37:09;;;;;;;3.58;2.00;;;18.20;51.40;;;;;;5056276;28;20727;-78
2020/12/16 11:39:35;;;;;;;5.28;1.90;;;18.20;51.80;;;;;;5039502;28;20166;-79
2020/12/16 11:42:03;;;;;;;3.22;2.08;;;18.20;50.90;;;;;;5057988;28;20609;-78
2020/12/16 11:44:30;;;;;;;2.58;2.28;;;18.10;51.90;;;;;;5056125;28;20146;-79
2020/12/16 11:46:59;;;;;;;2.42;1.90;;;18.10;51.40;;;;;;5065668;28;20162;-79
2020/12/16 11:49:26;;;;;;;3.03;2.08;;;18.10;51.30;;;;;;5065021;28;20161;-80
2020/12/16 11:52:02;;;;;;;1.73;1.40;;;18.10;51.40;;;;;;5063317;28;20170;-80
2020/12/16 11:54:29;;;;;;;5.28;2.15;;;18.10;50.80;;;;;;5064041;28;20256;-80
2020/12/16 11:56:55;;;;;;;3.40;2.33;;;18.10;51.50;;;;;;5062167;28;20209;-80
2020/12/16 11:59:22;;;;;;;3.03;1.80;;;18.10;51.30;;;;;;5063576;28;20150;-80
2020/12/16 12:01:48;;;;;;;4.22;1.88;;;18.20;51.20;;;;;;5064105;28;20223;-80
2020/12/16 12:04:15;;;;;;;4.75;2.00;;;18.20;50.70;;;;;;5062455;28;20147;-80
2020/12/16 12:06:43;;;;;;;2.83;1.98;;;18.20;50.60;;;;;;5062475;28;20163;-80
2020/12/16 12:09:11;;;;;;;2.30;1.65;;;18.20;51.20;;;;;;5062915;28;20325;-81
2020/12/16 12:11:37;;;;;;;2.63;1.90;;;18.10;50.60;;;;;;5062844;28;20182;-79
2020/12/16 12:14:04;;;;;;;3.78;2.13;;;18.10;50.70;;;;;;5063231;28;20170;-80
2020/12/16 12:16:30;;;;;;;2.83;1.83;;;18.20;51.00;;;;;;5062450;28;20704;-78
2020/12/16 12:18:57;;;;;;;2.15;1.70;;;18.10;50.50;;;;;;5059991;28;20154;-80
2020/12/16 12:21:23;;;;;;;2.58;2.10;;;18.20;50.40;;;;;;5058887;28;20154;-80
2020/12/16 12:23:50;;;;;;;2.65;1.73;;;18.10;50.80;;;;;;5059250;28;20158;-80
2020/12/16 12:26:16;;;;;;;2.50;1.52;;;18.20;49.90;;;;;;5058411;28;20605;-80
2020/12/16 12:28:44;;;;;;;2.83;1.60;;;18.20;50.10;;;;;;5059288;28;20162;-80
2020/12/16 12:31:11;;;;;;;2.08;1.75;;;18.20;50.00;;;;;;5056677;28;20154;-80
2020/12/16 12:33:37;;;;;;;3.25;1.70;;;18.20;50.50;;;;;;5058509;28;20750;-82
2020/12/16 12:36:03;;;;;;;2.40;1.73;;;18.20;50.60;;;;;;5061535;28;20185;-81
2020/12/16 12:38:38;;;;;;;2.95;2.30;;;18.20;50.30;;;;;;5081526;28;20239;-81
2020/12/16 12:41:06;;;;;;;2.38;2.00;;;18.10;50.80;;;;;;5083030;28;20607;-81
2020/12/16 12:43:33;;;;;;;2.47;1.75;;;18.10;50.50;;;;;;5082218;28;20154;-81
2020/12/16 12:46:00;;;;;;;2.47;1.50;;;18.10;50.40;;;;;;5063815;28;20666;-81
2020/12/16 12:48:26;;;;;;;2.35;1.70;;;18.10;50.10;;;;;;5064965;28;20252;-81
2020/12/16 12:50:52;;;;;;;2.38;1.80;;;18.20;50.20;;;;;;5082474;28;20616;-81
2020/12/16 12:53:19;;;;;;;3.67;1.70;;;18.20;50.00;;;;;;5081105;28;20204;-81
2020/12/16 12:55:53;;;;;;;2.00;1.65;;;18.20;50.20;;;;;;5081809;28;20161;-81
2020/12/16 12:58:23;;;;;;;1.95;1.65;;;18.20;49.80;;;;;;5081228;28;20500;-81
2020/12/16 13:00:50;;;;;;;1.90;1.52;;;18.20;49.60;;;;;;5082309;28;20160;-81